This is the latest recevied weather packets stored in our database for station/object GW1572. If no packets are shown the sender has not sent any weather packets the latest 10 day(s).
| Time | Temp. | Humidity | Pressure | Rain* | Wind** | Luminosity | Snow |
|---|---|---|---|---|---|---|---|
| 1777428392 | 18.33° C | 92% | 1006 hPa | 11.43 mm | - | - | - |
| 1777421909 | 20° C | 87% | 1005 hPa | 11.43 mm | - | - | - |
| 1777420098 | 21.11° C | 82% | 1005 hPa | 11.43 mm | - | - | - |
| 1777418667 | 24.44° C | 73% | 1004.4 hPa | 11.43 mm | - | - | - |
| 1777417608 | 25° C | 65% | 1004 hPa | 11.43 mm | - | - | - |
| 1777417237 | 25° C | 64% | 1004.4 hPa | 11.43 mm | - | - | - |
| 1777406074 | 24.44° C | 70% | 1005.7 hPa | 11.43 mm | - | - | - |
| 1777400331 | 23.33° C | 75% | 1006.7 hPa | 11.43 mm | - | - | - |
| 1777399601 | 22.78° C | 78% | 1007.1 hPa | 11.43 mm | - | - | - |
| 1777398136 | 22.22° C | 80% | 1007.1 hPa | 11.43 mm | - | - | - |
| 1777395648 | 21.11° C | 83% | 1007.4 hPa | 11.43 mm | - | - | - |
| 1777394924 | 20.56° C | 83% | 1007.4 hPa | 11.43 mm | - | - | - |
| 1777394204 | 20.56° C | 85% | 1007.4 hPa | 11.43 mm | - | - | - |
| 1777392753 | 20° C | 86% | 1007.4 hPa | 11.43 mm | - | - | - |
| 1777388784 | 18.33° C | 89% | 1007.1 hPa | 11.43 mm | - | - | - |
| 1777388451 | 17.78° C | 89% | 1007.1 hPa | 11.43 mm | - | - | - |
| 1777382664 | 16.11° C | 90% | 1006.4 hPa | 11.43 mm | - | - | - |
| 1777380158 | 14.44° C | 99% | 1006.4 hPa | 11.43 mm | - | - | - |
| 1777379789 | 14.44° C | 99% | 1006.4 hPa | 11.43 mm | - | - | - |
| 1777379443 | 14.44° C | 99% | 1006 hPa | 11.43 mm | - | - | - |
| 1777377651 | 13.89° C | 99% | 1005.4 hPa | 11.43 mm | - | - | - |
| 1777376930 | 13.89° C | 99% | 1005.4 hPa | 11.43 mm | - | - | - |
| 1777374051 | 13.33° C | 99% | 1005 hPa | 11.43 mm | - | - | - |
| 1777373323 | 13.33° C | 99% | 1005 hPa | 11.43 mm | - | - | - |
| 1777371886 | 13.33° C | 99% | 1003.3 hPa | 11.43 mm | - | - | - |
* Rain since midnight (hover to see other rain measurements)
** Current wind speed in m/s (hover to see current wind gust speed)